createdAt,value
2022-12-24T00:01:19.251Z,100535.31
2022-12-24T00:03:45.768Z,100553.28
2022-12-24T00:06:23.819Z,100551.03
2022-12-24T00:08:51.355Z,100546.16
2022-12-24T00:11:18.844Z,100553.94
2022-12-24T00:13:45.214Z,100541.13
2022-12-24T00:16:11.713Z,100554.13
2022-12-24T00:18:45.243Z,100554.59
2022-12-24T00:21:12.554Z,100561.91
2022-12-24T00:23:40.087Z,100564.50
2022-12-24T00:26:06.526Z,100561.25
2022-12-24T00:28:33.008Z,100554.66
2022-12-24T00:30:59.473Z,100558.50
2022-12-24T00:33:25.947Z,100569.19
2022-12-24T00:35:52.643Z,100583.75
2022-12-24T00:38:19.119Z,100589.59
2022-12-24T00:40:45.589Z,100585.06
2022-12-24T00:43:12.071Z,100577.28
2022-12-24T00:45:38.529Z,100598.22
2022-12-24T00:48:05.034Z,100597.69
2022-12-24T00:50:31.507Z,100592.03
2022-12-24T00:52:58.130Z,100600.13
2022-12-24T00:55:24.536Z,100615.00
2022-12-24T00:57:50.980Z,100606.28
2022-12-24T01:00:18.000Z,100603.38
2022-12-24T01:02:44.777Z,100625.56
2022-12-24T01:05:11.830Z,100628.63
2022-12-24T01:07:40.817Z,100627.03
2022-12-24T01:10:08.108Z,100633.34
2022-12-24T01:12:34.583Z,100634.00
2022-12-24T01:15:00.969Z,100643.38
2022-12-24T01:17:27.363Z,100644.03
2022-12-24T01:19:53.829Z,100643.69
2022-12-24T01:22:20.204Z,100648.22
2022-12-24T01:24:46.723Z,100657.75
2022-12-24T01:27:13.220Z,100665.88
2022-12-24T01:29:39.758Z,100660.53
2022-12-24T01:32:06.142Z,100670.91
2022-12-24T01:34:32.894Z,100671.06
2022-12-24T01:36:59.336Z,100678.63
2022-12-24T01:39:25.781Z,100681.72
2022-12-24T01:42:10.795Z,100684.94
2022-12-24T01:44:42.758Z,100688.66
2022-12-24T01:47:11.910Z,100683.63
2022-12-24T01:49:42.815Z,100685.22
2022-12-24T01:52:12.680Z,100684.44
2022-12-24T01:55:03.902Z,100696.81
2022-12-24T01:57:34.222Z,100696.03
2022-12-24T02:00:05.095Z,100699.91
2022-12-24T02:02:33.416Z,100707.81
2022-12-24T02:05:05.736Z,100714.59
2022-12-24T02:07:32.192Z,100709.91
2022-12-24T02:10:01.366Z,100722.53
2022-12-24T02:12:30.482Z,100720.06
2022-12-24T02:14:56.990Z,100727.16
2022-12-24T02:17:31.687Z,100736.34
2022-12-24T02:20:10.318Z,100734.72
2022-12-24T02:23:07.841Z,100745.03
2022-12-24T02:26:11.534Z,100744.84
2022-12-24T02:28:57.411Z,100744.13
2022-12-24T02:31:32.991Z,100746.47
2022-12-24T02:34:12.701Z,100741.59
2022-12-24T02:36:47.133Z,100746.25
2022-12-24T02:39:25.574Z,100757.41
2022-12-24T02:42:06.533Z,100759.69
2022-12-24T02:44:52.609Z,100758.13
2022-12-24T02:47:22.338Z,100753.97
2022-12-24T02:49:49.053Z,100750.69
2022-12-24T02:52:39.179Z,100757.00
2022-12-24T02:55:23.500Z,100754.19
2022-12-24T02:58:08.474Z,100775.16
2022-12-24T03:00:54.971Z,100777.25
2022-12-24T03:03:34.875Z,100782.09
2022-12-24T03:06:09.305Z,100771.59
2022-12-24T03:08:53.905Z,100778.13
2022-12-24T03:11:20.363Z,100777.06
2022-12-24T03:13:47.733Z,100764.31
2022-12-24T03:16:17.876Z,100770.81
2022-12-24T03:18:47.958Z,100778.56
2022-12-24T03:21:16.764Z,100779.09
2022-12-24T03:23:43.420Z,100777.75
2022-12-24T03:26:11.575Z,100777.53
2022-12-24T03:28:40.005Z,100783.66
2022-12-24T03:31:08.348Z,100801.03
2022-12-24T03:33:34.825Z,100801.31
2022-12-24T03:36:01.430Z,100807.94
2022-12-24T03:38:27.860Z,100795.13
2022-12-24T03:40:54.330Z,100813.78
2022-12-24T03:43:20.761Z,100803.53
2022-12-24T03:45:47.234Z,100802.59
2022-12-24T03:48:13.704Z,100807.69
2022-12-24T03:50:40.116Z,100801.84
2022-12-24T03:53:06.548Z,100805.47
2022-12-24T03:55:33.010Z,100809.50
2022-12-24T03:57:59.389Z,100820.50
2022-12-24T04:00:25.838Z,100820.88
2022-12-24T04:02:53.621Z,100816.72
2022-12-24T04:05:20.732Z,100818.38
2022-12-24T04:07:47.335Z,100820.94
2022-12-24T04:10:19.944Z,100829.06
2022-12-24T04:12:46.334Z,100819.03
2022-12-24T04:15:12.782Z,100823.91
2022-12-24T04:17:39.227Z,100820.56
2022-12-24T04:20:06.347Z,100808.69
2022-12-24T04:22:32.796Z,100809.91
2022-12-24T04:24:59.236Z,100829.00
2022-12-24T04:27:30.412Z,100831.78
2022-12-24T04:29:57.363Z,100836.94
2022-12-24T04:32:25.983Z,100834.38
2022-12-24T04:34:52.401Z,100825.63
2022-12-24T04:37:18.772Z,100843.69
2022-12-24T04:39:45.197Z,100840.28
2022-12-24T04:42:11.607Z,100845.59
2022-12-24T04:44:38.073Z,100848.50
2022-12-24T04:47:04.548Z,100848.41
2022-12-24T04:49:30.973Z,100842.25
2022-12-24T04:51:57.455Z,100850.50
2022-12-24T04:54:23.859Z,100848.00
2022-12-24T04:56:50.273Z,100834.34
2022-12-24T04:59:16.747Z,100856.19
2022-12-24T05:01:43.265Z,100859.34
2022-12-24T05:04:11.075Z,100849.28
2022-12-24T05:06:37.579Z,100853.34
2022-12-24T05:09:04.062Z,100852.88
2022-12-24T05:11:30.897Z,100852.09
2022-12-24T05:13:57.349Z,100851.09
2022-12-24T05:16:24.644Z,100851.59
2022-12-24T05:18:51.346Z,100846.56
2022-12-24T05:21:21.380Z,100852.41
2022-12-24T05:24:06.520Z,100849.91
2022-12-24T05:26:49.006Z,100855.97
2022-12-24T05:29:15.530Z,100849.53
2022-12-24T05:31:43.571Z,100855.34
2022-12-24T05:34:10.405Z,100860.88
2022-12-24T05:36:37.238Z,100868.00
2022-12-24T05:39:04.816Z,100861.47
2022-12-24T05:41:33.775Z,100863.78
2022-12-24T05:44:00.186Z,100869.44
2022-12-24T05:46:26.741Z,100875.63
2022-12-24T05:48:53.596Z,100872.19
2022-12-24T05:51:22.258Z,100866.56
2022-12-24T05:53:49.844Z,100873.97
2022-12-24T05:56:20.113Z,100869.13
2022-12-24T05:58:46.790Z,100861.59
2022-12-24T06:01:13.702Z,100873.81
2022-12-24T06:03:40.216Z,100880.75
2022-12-24T06:06:12.203Z,100880.34
2022-12-24T06:08:39.194Z,100889.16
2022-12-24T06:11:09.796Z,100886.84
2022-12-24T06:13:36.890Z,100888.94
2022-12-24T06:16:06.398Z,100883.16
2022-12-24T06:18:34.257Z,100884.09
2022-12-24T06:21:01.228Z,100893.34
2022-12-24T06:23:30.138Z,100904.19
2022-12-24T06:25:57.813Z,100910.19
2022-12-24T06:28:24.948Z,100904.19
2022-12-24T06:30:53.646Z,100898.72
2022-12-24T06:33:23.695Z,100903.88
2022-12-24T06:35:50.121Z,100907.91
2022-12-24T06:38:16.547Z,100905.25
2022-12-24T06:40:44.811Z,100914.53
2022-12-24T06:43:12.235Z,100908.06
2022-12-24T06:45:38.851Z,100919.28
2022-12-24T06:48:06.482Z,100924.16
2022-12-24T06:50:33.891Z,100927.25
2022-12-24T06:53:00.259Z,100933.38
2022-12-24T06:55:26.675Z,100932.53
2022-12-24T06:57:53.130Z,100931.94
2022-12-24T07:00:21.625Z,100927.84
2022-12-24T07:02:48.106Z,100928.06
2022-12-24T07:05:14.880Z,100930.78
2022-12-24T07:07:43.648Z,100936.13
2022-12-24T07:10:15.662Z,100940.84
2022-12-24T07:12:42.421Z,100945.53
2022-12-24T07:15:11.270Z,100952.81
2022-12-24T07:17:38.093Z,100944.25
2022-12-24T07:20:05.709Z,100947.28
2022-12-24T07:22:32.107Z,100947.13
2022-12-24T07:24:58.498Z,100950.84
2022-12-24T07:27:24.919Z,100953.97
2022-12-24T07:29:51.621Z,100955.06
2022-12-24T07:32:20.311Z,100963.03
2022-12-24T07:34:46.749Z,100944.09
2022-12-24T07:37:13.278Z,100958.00
2022-12-24T07:39:39.674Z,100980.88
2022-12-24T07:42:07.880Z,100982.81
2022-12-24T07:44:34.675Z,100991.72
2022-12-24T07:47:01.169Z,101001.44
2022-12-24T07:49:27.663Z,101003.19
2022-12-24T07:51:54.333Z,101005.63
2022-12-24T07:54:20.861Z,101017.63
2022-12-24T07:56:47.385Z,101014.53
2022-12-24T07:59:13.986Z,101031.53
2022-12-24T08:01:40.612Z,101026.00
2022-12-24T08:04:07.230Z,101028.25
2022-12-24T08:06:33.687Z,101035.25
2022-12-24T08:09:00.195Z,101038.94
2022-12-24T08:11:26.641Z,101046.66
2022-12-24T08:13:53.054Z,101045.69
2022-12-24T08:16:19.568Z,101051.72
2022-12-24T08:18:46.017Z,101052.13
2022-12-24T08:21:12.396Z,101051.19
2022-12-24T08:23:38.978Z,101056.44
2022-12-24T08:26:09.244Z,101062.81
2022-12-24T08:28:35.685Z,101073.19
2022-12-24T08:31:02.368Z,101068.44
2022-12-24T08:33:28.889Z,101073.63
2022-12-24T08:35:56.327Z,101069.38
2022-12-24T08:38:22.876Z,101072.19
2022-12-24T08:40:50.090Z,101083.72
2022-12-24T08:43:17.559Z,101083.88
2022-12-24T08:45:44.138Z,101090.44
2022-12-24T08:48:10.972Z,101098.50
2022-12-24T08:50:41.409Z,101091.56
2022-12-24T08:53:08.682Z,101094.69
2022-12-24T08:55:35.178Z,101101.84
2022-12-24T08:58:01.564Z,101105.19
2022-12-24T09:00:28.315Z,101111.91
2022-12-24T09:02:56.198Z,101111.53
2022-12-24T09:05:23.016Z,101118.00
2022-12-24T09:07:49.389Z,101121.91
2022-12-24T09:10:17.122Z,101127.22
2022-12-24T09:12:43.589Z,101123.72
2022-12-24T09:15:10.479Z,101128.13
2022-12-24T09:17:37.011Z,101135.38
2022-12-24T09:20:04.552Z,101133.44
2022-12-24T09:22:31.002Z,101133.44
2022-12-24T09:24:57.424Z,101147.56
2022-12-24T09:27:23.940Z,101154.44
2022-12-24T09:29:50.441Z,101163.19
2022-12-24T09:32:17.151Z,101162.00
2022-12-24T09:34:43.671Z,101167.66
2022-12-24T09:37:10.037Z,101159.06
2022-12-24T09:39:36.522Z,101165.13
2022-12-24T09:42:21.892Z,101170.16
2022-12-24T09:44:54.502Z,101169.16
2022-12-24T09:47:33.630Z,101173.00
2022-12-24T09:50:02.346Z,101187.81
2022-12-24T09:52:33.862Z,101180.97
2022-12-24T09:55:22.262Z,101179.56
2022-12-24T09:57:50.394Z,101176.41
2022-12-24T10:00:27.726Z,101182.91
2022-12-24T10:02:54.383Z,101180.25
2022-12-24T10:05:34.307Z,101187.75
2022-12-24T10:08:11.725Z,101191.59
2022-12-24T10:10:44.514Z,101193.53
2022-12-24T10:13:21.404Z,101196.44
2022-12-24T10:16:01.110Z,101192.56
2022-12-24T10:18:49.341Z,101189.94
2022-12-24T10:21:21.158Z,101190.09
2022-12-24T10:24:08.113Z,101207.50
2022-12-24T10:26:45.172Z,101199.63
2022-12-24T10:29:18.856Z,101203.47
2022-12-24T10:31:58.887Z,101197.91
2022-12-24T10:34:29.717Z,101199.38
2022-12-24T10:36:56.422Z,101211.91
2022-12-24T10:39:24.974Z,101212.13
2022-12-24T10:41:53.359Z,101215.88
2022-12-24T10:44:22.751Z,101201.78
2022-12-24T10:46:49.190Z,101203.91
2022-12-24T10:49:25.645Z,101211.19
2022-12-24T10:52:19.883Z,101210.34
2022-12-24T10:55:06.836Z,101206.06
2022-12-24T10:57:33.840Z,101219.72
2022-12-24T11:00:01.047Z,101210.69
2022-12-24T11:02:38.599Z,101212.78
2022-12-24T11:05:08.401Z,101216.19
2022-12-24T11:07:34.838Z,101227.72
2022-12-24T11:10:04.363Z,101229.34
2022-12-24T11:12:37.820Z,101227.34
2022-12-24T11:15:07.837Z,101216.19
2022-12-24T11:17:34.450Z,101218.13
2022-12-24T11:20:03.256Z,101221.56
2022-12-24T11:22:31.159Z,101216.75
2022-12-24T11:25:02.625Z,101238.31
2022-12-24T11:27:40.666Z,101231.53
2022-12-24T11:30:13.292Z,101232.78
2022-12-24T11:32:39.709Z,101233.59
2022-12-24T11:35:07.843Z,101229.34
2022-12-24T11:37:34.442Z,101240.53
2022-12-24T11:40:01.999Z,101226.47
2022-12-24T11:42:36.778Z,101230.78
2022-12-24T11:45:06.280Z,101234.75
2022-12-24T11:47:34.245Z,101236.56
2022-12-24T11:50:37.587Z,101247.50
2022-12-24T11:53:03.892Z,101253.66
2022-12-24T11:55:46.692Z,101245.88
2022-12-24T11:58:36.024Z,101236.84
2022-12-24T12:01:15.981Z,101243.41
2022-12-24T12:03:51.859Z,101237.56
2022-12-24T12:06:52.197Z,101244.69
2022-12-24T12:09:25.636Z,101245.31
2022-12-24T12:11:59.474Z,101250.75
2022-12-24T12:14:37.523Z,101258.94
2022-12-24T12:17:15.961Z,101262.75
2022-12-24T12:19:47.179Z,101270.13
2022-12-24T12:22:35.242Z,101264.22
2022-12-24T12:25:03.274Z,101272.47
2022-12-24T12:27:38.755Z,101271.69
2022-12-24T12:30:16.570Z,101275.78
2022-12-24T12:32:53.839Z,101283.59
2022-12-24T12:35:45.814Z,101287.09
2022-12-24T12:38:17.026Z,101281.41
2022-12-24T12:41:04.360Z,101285.97
2022-12-24T12:43:56.886Z,101288.03
2022-12-24T12:46:23.240Z,101290.69
2022-12-24T12:49:31.753Z,101289.81
2022-12-24T12:52:06.627Z,101294.59
2022-12-24T12:54:54.300Z,101302.50
2022-12-24T12:57:24.229Z,101303.16
2022-12-24T12:59:52.229Z,101299.47
2022-12-24T13:02:49.482Z,101302.38
2022-12-24T13:05:31.090Z,101304.22
2022-12-24T13:08:23.737Z,101311.47
2022-12-24T13:11:11.542Z,101310.31
2022-12-24T13:14:15.457Z,101313.53
2022-12-24T13:16:53.338Z,101319.97
2022-12-24T13:19:58.033Z,101323.97
2022-12-24T13:22:24.500Z,101317.16
2022-12-24T13:24:54.944Z,101310.94
2022-12-24T13:27:25.166Z,101309.09
2022-12-24T13:30:09.130Z,101317.03
2022-12-24T13:32:38.400Z,101331.59
2022-12-24T13:35:25.093Z,101342.59
2022-12-24T13:37:52.121Z,101340.75
2022-12-24T13:40:27.619Z,101344.03
2022-12-24T13:43:01.087Z,101342.16
2022-12-24T13:45:33.482Z,101347.47
2022-12-24T13:48:14.602Z,101340.50
2022-12-24T13:50:45.010Z,101337.75
2022-12-24T13:53:32.079Z,101349.91
2022-12-24T13:56:13.792Z,101351.28
2022-12-24T13:58:46.319Z,101353.00
2022-12-24T14:01:19.007Z,101353.44
2022-12-24T14:03:49.293Z,101370.00
2022-12-24T14:06:25.256Z,101351.34
2022-12-24T14:08:53.829Z,101366.94
2022-12-24T14:11:22.580Z,101374.13
2022-12-24T14:13:48.940Z,101372.66
2022-12-24T14:16:16.182Z,101374.31
2022-12-24T14:18:44.669Z,101378.16
2022-12-24T14:21:22.502Z,101377.75
2022-12-24T14:24:05.440Z,101372.00
2022-12-24T14:26:36.937Z,101372.97
2022-12-24T14:29:07.217Z,101370.31
2022-12-24T14:31:33.940Z,101379.97
2022-12-24T14:34:13.029Z,101374.56
2022-12-24T14:36:40.397Z,101374.78
2022-12-24T14:39:08.699Z,101386.88
2022-12-24T14:41:45.065Z,101390.97
2022-12-24T14:44:33.941Z,101397.06
2022-12-24T14:47:44.966Z,101397.44
2022-12-24T14:50:21.820Z,101399.38
2022-12-24T14:53:07.176Z,101406.72
2022-12-24T14:55:46.249Z,101402.25
2022-12-24T14:58:25.908Z,101410.19
2022-12-24T15:00:55.109Z,101410.03
2022-12-24T15:03:24.530Z,101408.72
2022-12-24T15:06:03.184Z,101414.94
2022-12-24T15:08:37.072Z,101422.88
2022-12-24T15:11:06.376Z,101432.25
2022-12-24T15:13:41.002Z,101420.69
2022-12-24T15:16:19.178Z,101423.09
2022-12-24T15:18:52.444Z,101424.88
2022-12-24T15:21:26.084Z,101421.91
2022-12-24T15:23:52.622Z,101429.69
2022-12-24T15:26:31.131Z,101438.47
2022-12-24T15:29:03.108Z,101432.88
2022-12-24T15:31:31.148Z,101436.72
2022-12-24T15:33:59.224Z,101450.28
2022-12-24T15:36:28.582Z,101449.88
2022-12-24T15:38:57.001Z,101448.69
2022-12-24T15:41:38.213Z,101450.22
2022-12-24T15:44:04.987Z,101457.00
2022-12-24T15:46:32.436Z,101457.72
2022-12-24T15:49:00.936Z,101452.81
2022-12-24T15:51:34.325Z,101468.38
2022-12-24T15:54:08.098Z,101473.16
2022-12-24T15:56:39.893Z,101470.47
2022-12-24T15:59:15.874Z,101470.75
2022-12-24T16:01:43.667Z,101474.44
2022-12-24T16:04:30.348Z,101474.72
2022-12-24T16:07:02.272Z,101471.16
2022-12-24T16:09:43.998Z,101469.38
2022-12-24T16:12:19.623Z,101476.06
2022-12-24T16:14:49.353Z,101476.78
2022-12-24T16:17:22.361Z,101477.03
2022-12-24T16:19:51.537Z,101477.84
2022-12-24T16:22:32.108Z,101468.06
2022-12-24T16:25:00.130Z,101470.91
2022-12-24T16:27:26.766Z,101469.56
2022-12-24T16:29:53.426Z,101470.22
2022-12-24T16:32:34.471Z,101465.34
2022-12-24T16:35:02.564Z,101471.06
2022-12-24T16:37:28.965Z,101472.69
2022-12-24T16:39:55.496Z,101478.94
2022-12-24T16:42:48.151Z,101475.41
2022-12-24T16:45:14.566Z,101482.34
2022-12-24T16:47:43.339Z,101486.28
2022-12-24T16:50:16.133Z,101479.09
2022-12-24T16:52:42.597Z,101480.03
2022-12-24T16:55:09.501Z,101481.50
2022-12-24T16:57:35.906Z,101469.69
2022-12-24T17:00:11.647Z,101462.84
2022-12-24T17:02:39.563Z,101465.19
2022-12-24T17:05:06.441Z,101466.66
2022-12-24T17:07:32.874Z,101475.53
2022-12-24T17:09:59.292Z,101486.94
2022-12-24T17:12:25.725Z,101488.41
2022-12-24T17:15:05.708Z,101484.09
2022-12-24T17:17:32.277Z,101490.75
2022-12-24T17:19:58.678Z,101487.75
2022-12-24T17:22:27.243Z,101492.66
2022-12-24T17:24:54.804Z,101493.03
2022-12-24T17:27:21.265Z,101480.94
2022-12-24T17:29:47.731Z,101490.59
2022-12-24T17:32:14.136Z,101481.47
2022-12-24T17:34:40.539Z,101479.97
2022-12-24T17:37:06.930Z,101478.59
2022-12-24T17:39:33.378Z,101473.44
2022-12-24T17:41:59.746Z,101467.38
2022-12-24T17:44:26.177Z,101461.13
2022-12-24T17:46:52.754Z,101459.75
2022-12-24T17:49:19.241Z,101464.00
2022-12-24T17:51:46.732Z,101468.47
2022-12-24T17:54:13.544Z,101462.88
2022-12-24T17:56:40.054Z,101457.03
2022-12-24T17:59:06.491Z,101461.09
2022-12-24T18:01:33.236Z,101474.28
2022-12-24T18:04:01.299Z,101462.31
2022-12-24T18:06:28.156Z,101468.56
2022-12-24T18:08:54.802Z,101475.63
2022-12-24T18:11:25.042Z,101475.75
2022-12-24T18:13:53.302Z,101479.31
2022-12-24T18:16:21.168Z,101480.34
2022-12-24T18:18:48.404Z,101476.53
2022-12-24T18:21:16.201Z,101482.22
2022-12-24T18:23:44.622Z,101489.16
2022-12-24T18:26:11.490Z,101491.31
2022-12-24T18:28:38.571Z,101488.72
2022-12-24T18:31:07.621Z,101472.81
2022-12-24T18:33:35.229Z,101481.22
2022-12-24T18:36:01.741Z,101475.75
2022-12-24T18:38:28.526Z,101475.06
2022-12-24T18:40:54.906Z,101483.91
2022-12-24T18:43:21.359Z,101485.41
2022-12-24T18:45:48.901Z,101488.25
2022-12-24T18:48:15.375Z,101485.34
2022-12-24T18:50:41.885Z,101486.84
2022-12-24T18:53:08.491Z,101488.63
2022-12-24T18:55:35.965Z,101479.94
2022-12-24T18:58:02.407Z,101488.38
2022-12-24T19:00:28.976Z,101489.19
2022-12-24T19:02:55.637Z,101490.69
2022-12-24T19:05:22.320Z,101486.72
2022-12-24T19:07:48.801Z,101485.69
2022-12-24T19:10:15.280Z,101484.84
2022-12-24T19:12:41.699Z,101478.72
2022-12-24T19:15:08.347Z,101468.94
2022-12-24T19:17:34.800Z,101475.28
2022-12-24T19:20:01.264Z,101488.59
2022-12-24T19:22:27.822Z,101484.91
2022-12-24T19:24:54.368Z,101483.03
2022-12-24T19:27:20.801Z,101479.75
2022-12-24T19:29:47.433Z,101480.56
2022-12-24T19:32:13.878Z,101479.63
2022-12-24T19:34:40.314Z,101481.00
2022-12-24T19:37:06.777Z,101481.00
2022-12-24T19:39:33.420Z,101479.09
2022-12-24T19:42:00.675Z,101484.97
2022-12-24T19:44:27.214Z,101487.41
2022-12-24T19:46:53.975Z,101483.50
2022-12-24T19:49:20.342Z,101480.91
2022-12-24T19:51:46.822Z,101496.69
2022-12-24T19:54:18.568Z,101499.72
2022-12-24T19:56:45.580Z,101501.44
2022-12-24T19:59:12.035Z,101494.41
2022-12-24T20:01:38.878Z,101501.66
2022-12-24T20:04:06.370Z,101494.47
2022-12-24T20:06:34.943Z,101502.78
2022-12-24T20:09:04.897Z,101492.44
2022-12-24T20:11:31.449Z,101491.97
2022-12-24T20:13:59.285Z,101493.78
2022-12-24T20:16:26.557Z,101496.06
2022-12-24T20:19:01.536Z,101499.63
2022-12-24T20:21:28.104Z,101497.72
2022-12-24T20:23:54.639Z,101496.38
2022-12-24T20:26:23.847Z,101507.28
2022-12-24T20:28:50.339Z,101505.38
2022-12-24T20:31:22.238Z,101501.34
2022-12-24T20:33:48.790Z,101499.88
2022-12-24T20:36:17.353Z,101505.34
2022-12-24T20:38:44.453Z,101505.22
2022-12-24T20:41:13.665Z,101489.72
2022-12-24T20:43:47.383Z,101496.06
2022-12-24T20:46:14.857Z,101502.75
2022-12-24T20:48:41.765Z,101479.50
2022-12-24T20:51:10.654Z,101475.94
2022-12-24T20:53:39.038Z,101465.47
2022-12-24T20:56:05.818Z,101464.53
2022-12-24T20:58:32.272Z,101465.59
2022-12-24T21:00:58.754Z,101463.03
2022-12-24T21:03:25.329Z,101468.59
2022-12-24T21:05:51.788Z,101468.59
2022-12-24T21:08:18.213Z,101475.25
2022-12-24T21:10:45.996Z,101474.28
2022-12-24T21:13:12.380Z,101471.56
2022-12-24T21:15:39.937Z,101469.41
2022-12-24T21:18:11.683Z,101477.97
2022-12-24T21:20:39.936Z,101473.56
2022-12-24T21:23:06.566Z,101468.97
2022-12-24T21:25:33.630Z,101469.75
2022-12-24T21:28:00.023Z,101452.72
2022-12-24T21:30:26.489Z,101446.38
2022-12-24T21:32:52.938Z,101442.44
2022-12-24T21:35:19.316Z,101447.63
2022-12-24T21:37:45.977Z,101455.75
2022-12-24T21:40:12.700Z,101458.97
2022-12-24T21:42:39.290Z,101450.00
2022-12-24T21:45:07.010Z,101464.03
2022-12-24T21:47:34.878Z,101458.56
2022-12-24T21:50:19.990Z,101461.88
2022-12-24T21:52:46.448Z,101457.78
2022-12-24T21:55:12.814Z,101450.81
2022-12-24T21:58:05.458Z,101447.69
2022-12-24T22:00:31.980Z,101444.97
2022-12-24T22:02:59.044Z,101446.31
2022-12-24T22:05:26.174Z,101446.06
2022-12-24T22:08:11.992Z,101445.50
2022-12-24T22:10:57.581Z,101445.63
2022-12-24T22:13:24.859Z,101453.00
2022-12-24T22:15:52.900Z,101449.72
2022-12-24T22:18:22.636Z,101451.47
2022-12-24T22:20:49.399Z,101447.84
2022-12-24T22:23:16.512Z,101441.97
2022-12-24T22:25:43.859Z,101436.53
2022-12-24T22:28:11.055Z,101435.06
2022-12-24T22:30:41.584Z,101427.56
2022-12-24T22:33:08.681Z,101428.91
2022-12-24T22:35:39.487Z,101433.25
2022-12-24T22:38:06.632Z,101437.31
2022-12-24T22:40:33.130Z,101442.34
2022-12-24T22:42:59.557Z,101452.78
2022-12-24T22:45:25.936Z,101457.63
2022-12-24T22:47:52.355Z,101451.56
2022-12-24T22:50:18.775Z,101446.78
2022-12-24T22:52:45.198Z,101461.78
2022-12-24T22:55:11.616Z,101473.72
2022-12-24T22:57:38.019Z,101477.28
2022-12-24T23:00:11.015Z,101477.16
2022-12-24T23:02:37.890Z,101468.19
2022-12-24T23:05:07.556Z,101474.59
2022-12-24T23:07:33.998Z,101475.94
2022-12-24T23:10:00.523Z,101485.34
2022-12-24T23:12:45.691Z,101486.84
2022-12-24T23:15:12.135Z,101484.81
2022-12-24T23:17:38.536Z,101481.53
2022-12-24T23:20:05.793Z,101487.28
2022-12-24T23:22:32.300Z,101489.28
2022-12-24T23:24:58.734Z,101479.91
2022-12-24T23:27:25.182Z,101477.22
2022-12-24T23:29:51.614Z,101485.13
2022-12-24T23:32:17.989Z,101490.53
2022-12-24T23:34:44.497Z,101490.31
2022-12-24T23:37:10.895Z,101494.53
2022-12-24T23:39:37.308Z,101497.09
2022-12-24T23:42:03.743Z,101489.09
2022-12-24T23:44:32.528Z,101484.06
2022-12-24T23:46:59.574Z,101482.03
2022-12-24T23:49:26.710Z,101468.06
2022-12-24T23:51:53.175Z,101464.94
2022-12-24T23:54:19.654Z,101455.69
2022-12-24T23:56:46.124Z,101442.78
2022-12-24T23:59:12.519Z,101436.41
